Time;durP1;ratioP1;P1;durP2;ratioP2;P2;SDS_P1;SDS_P2;PMS_P1;PMS_P2;Temp;Humidity;BMP_temperature;BMP_pressure;BME280_temperature;BME280_humidity;BME280_pressure;Samples;Min_cycle;Max_cycle;Signal;HPM_P1;HPM_P2
2022/08/30 00:01:27;;;;;;;6.77;1.77;;;28.50;45.80;;;;;;5072699;28;20458;-76
2022/08/30 00:03:55;;;;;;;3.13;1.47;;;28.50;45.70;;;;;;5073049;28;20503;-75
2022/08/30 00:06:23;;;;;;;1.70;1.33;;;28.50;45.80;;;;;;5072182;28;20491;-75
2022/08/30 00:08:51;;;;;;;1.67;1.57;;;28.50;45.80;;;;;;5073360;28;20441;-76
2022/08/30 00:11:20;;;;;;;1.30;1.30;;;28.50;45.80;;;;;;5062141;28;20424;-75
2022/08/30 00:13:51;;;;;;;5.90;1.73;;;28.40;45.70;;;;;;5072815;28;20446;-75
2022/08/30 00:16:20;;;;;;;8.73;1.90;;;28.40;45.70;;;;;;5072274;28;20467;-74
2022/08/30 00:18:48;;;;;;;1.93;1.77;;;28.40;45.60;;;;;;5071390;28;20456;-74
2022/08/30 00:21:16;;;;;;;4.77;1.37;;;28.40;45.60;;;;;;5072782;28;20520;-74
2022/08/30 00:23:44;;;;;;;2.93;1.50;;;28.40;45.70;;;;;;5072512;28;20568;-74
2022/08/30 00:26:12;;;;;;;2.33;1.43;;;28.40;45.60;;;;;;5072375;28;20466;-74
2022/08/30 00:28:40;;;;;;;2.67;1.40;;;28.30;45.60;;;;;;5062554;28;20453;-75
2022/08/30 00:31:09;;;;;;;1.47;1.23;;;28.30;45.60;;;;;;5072275;28;20495;-75
2022/08/30 00:33:41;;;;;;;1.57;1.47;;;28.30;45.70;;;;;;5072382;28;20429;-74
2022/08/30 00:36:09;;;;;;;2.60;1.70;;;28.30;45.70;;;;;;5072071;28;20468;-74
2022/08/30 00:38:36;;;;;;;1.73;1.63;;;28.30;45.70;;;;;;5072642;28;20496;-75
2022/08/30 00:41:04;;;;;;;1.60;1.50;;;28.20;45.70;;;;;;5072431;28;20513;-75
2022/08/30 00:43:34;;;;;;;1.63;1.53;;;28.20;46.40;;;;;;5066362;28;20831;-75
2022/08/30 00:46:06;;;;;;;1.50;1.40;;;28.20;45.80;;;;;;5066837;28;20444;-74
2022/08/30 00:48:39;;;;;;;2.13;1.40;;;28.20;45.70;;;;;;5072332;28;20418;-75
2022/08/30 00:51:08;;;;;;;1.80;1.70;;;28.10;45.70;;;;;;5073602;28;20503;-75
2022/08/30 00:53:38;;;;;;;1.47;1.47;;;28.10;45.70;;;;;;5072973;28;20416;-75
2022/08/30 00:56:06;;;;;;;1.90;1.60;;;28.10;45.70;;;;;;5073200;28;20461;-75
2022/08/30 00:58:35;;;;;;;1.60;1.50;;;28.10;45.70;;;;;;5072930;28;20512;-75
2022/08/30 01:01:04;;;;;;;2.67;1.43;;;28.10;45.80;;;;;;5072507;28;20536;-75
2022/08/30 01:03:32;;;;;;;3.13;1.80;;;28.10;45.80;;;;;;5071612;28;20448;-75
2022/08/30 01:06:02;;;;;;;1.53;1.30;;;28.10;45.90;;;;;;5068549;28;20545;-75
2022/08/30 01:08:30;;;;;;;1.73;1.50;;;28.00;45.80;;;;;;5076038;28;20442;-75
2022/08/30 01:10:58;;;;;;;1.90;1.80;;;28.00;45.90;;;;;;5075503;28;20974;-75
2022/08/30 01:13:26;;;;;;;1.70;1.60;;;28.00;45.80;;;;;;5074452;28;20442;-75
2022/08/30 01:15:54;;;;;;;2.33;1.30;;;28.00;45.80;;;;;;5073610;28;20465;-75
2022/08/30 01:18:23;;;;;;;1.70;1.60;;;28.00;45.90;;;;;;5073856;28;20427;-75
2022/08/30 01:21:02;;;;;;;2.17;1.43;;;27.90;45.80;;;;;;5069783;28;20425;-75
2022/08/30 01:23:31;;;;;;;1.40;1.30;;;27.90;45.80;;;;;;5075982;28;20500;-75
2022/08/30 01:25:59;;;;;;;1.50;1.40;;;27.90;45.80;;;;;;5078295;28;20544;-75
2022/08/30 01:28:27;;;;;;;2.30;1.40;;;27.90;45.80;;;;;;5078383;28;20442;-74
2022/08/30 01:30:55;;;;;;;2.70;1.33;;;27.90;46.00;;;;;;5077969;28;20412;-74
2022/08/30 01:33:23;;;;;;;1.70;1.60;;;27.90;45.90;;;;;;5077157;28;20502;-73
2022/08/30 01:35:52;;;;;;;1.70;1.60;;;27.80;45.90;;;;;;5076743;28;20432;-74
2022/08/30 01:38:21;;;;;;;2.60;1.53;;;27.80;46.00;;;;;;5074986;28;20867;-73
2022/08/30 01:40:50;;;;;;;1.30;1.30;;;27.80;46.00;;;;;;5076905;28;20446;-73
2022/08/30 01:43:18;;;;;;;2.57;1.47;;;27.80;45.90;;;;;;5076385;28;20444;-74
2022/08/30 01:45:47;;;;;;;1.40;1.33;;;27.80;46.00;;;;;;5076783;28;20467;-74
2022/08/30 01:48:15;;;;;;;1.70;1.60;;;27.80;45.90;;;;;;5072432;28;20432;-74
2022/08/30 01:50:43;;;;;;;2.10;1.40;;;27.80;46.00;;;;;;5076875;28;20451;-74
2022/08/30 01:53:10;;;;;;;5.90;1.30;;;27.80;46.00;;;;;;5075916;28;20409;-74
2022/08/30 01:55:40;;;;;;;4.50;1.77;;;27.80;46.00;;;;;;5076398;28;20432;-73
2022/08/30 01:58:09;;;;;;;1.40;1.30;;;27.70;46.00;;;;;;5072912;28;20536;-75
2022/08/30 02:00:37;;;;;;;1.20;1.20;;;27.70;46.10;;;;;;5075644;28;20447;-74
2022/08/30 02:03:05;;;;;;;2.43;1.23;;;27.70;46.00;;;;;;5075577;28;20476;-74
2022/08/30 02:05:33;;;;;;;1.60;1.50;;;27.70;46.00;;;;;;5075893;28;20442;-74
2022/08/30 02:08:01;;;;;;;2.07;1.33;;;27.70;46.10;;;;;;5076207;28;20428;-74
2022/08/30 02:10:29;;;;;;;1.50;1.40;;;27.70;46.00;;;;;;5076570;28;20445;-74
2022/08/30 02:12:58;;;;;;;1.10;1.10;;;27.60;46.10;;;;;;5076751;28;20417;-74
2022/08/30 02:15:27;;;;;;;1.67;1.57;;;27.60;46.10;;;;;;5071502;28;20448;-74
2022/08/30 02:17:55;;;;;;;1.40;1.40;;;27.60;46.00;;;;;;5076351;28;20792;-74
2022/08/30 02:20:23;;;;;;;1.63;1.30;;;27.60;46.10;;;;;;5075767;28;20455;-74
2022/08/30 02:22:51;;;;;;;2.40;1.37;;;27.60;46.10;;;;;;5076040;28;20446;-74
2022/08/30 02:25:19;;;;;;;1.80;1.20;;;27.60;46.10;;;;;;5076041;28;20512;-74
2022/08/30 02:27:48;;;;;;;1.43;1.33;;;27.60;46.10;;;;;;5076124;28;20491;-74
2022/08/30 02:30:16;;;;;;;1.80;1.20;;;27.50;46.00;;;;;;5075885;28;20883;-74
2022/08/30 02:32:45;;;;;;;1.47;1.37;;;27.50;46.20;;;;;;5070137;28;20540;-74
2022/08/30 02:35:13;;;;;;;2.30;1.20;;;27.50;46.10;;;;;;5075597;28;20453;-74
2022/08/30 02:37:40;;;;;;;1.20;1.20;;;27.50;46.20;;;;;;5075990;28;20556;-74
2022/08/30 02:40:10;;;;;;;1.60;1.50;;;27.50;46.10;;;;;;5076047;28;20542;-74
2022/08/30 02:42:40;;;;;;;1.30;1.20;;;27.50;46.10;;;;;;5074252;28;20507;-74
2022/08/30 02:45:09;;;;;;;1.57;1.13;;;27.50;46.00;;;;;;5074147;28;20481;-74
2022/08/30 02:47:37;;;;;;;1.30;1.30;;;27.50;46.10;;;;;;5072466;28;20442;-74
2022/08/30 02:50:07;;;;;;;1.30;1.30;;;27.50;46.10;;;;;;5060989;28;20472;-74
2022/08/30 02:52:35;;;;;;;1.43;1.33;;;27.50;46.10;;;;;;5074284;28;20503;-74
2022/08/30 02:55:03;;;;;;;1.37;1.27;;;27.50;46.70;;;;;;5074493;28;20431;-74
2022/08/30 02:57:30;;;;;;;1.57;1.47;;;27.50;46.10;;;;;;5074050;28;20954;-74
2022/08/30 02:59:58;;;;;;;1.30;1.23;;;27.50;46.20;;;;;;5073823;28;20523;-74
2022/08/30 03:02:26;;;;;;;1.80;1.43;;;27.50;46.70;;;;;;5073955;28;20503;-74
2022/08/30 03:04:54;;;;;;;1.60;1.50;;;27.50;46.20;;;;;;5070424;28;20473;-74
2022/08/30 03:07:23;;;;;;;1.40;1.30;;;27.40;46.10;;;;;;5073872;28;20448;-74
2022/08/30 03:09:51;;;;;;;3.53;1.47;;;27.40;46.10;;;;;;5073925;28;20425;-74
2022/08/30 03:12:19;;;;;;;1.73;1.40;;;27.40;46.10;;;;;;5073828;28;20533;-74
2022/08/30 03:14:48;;;;;;;1.60;1.30;;;27.40;46.10;;;;;;5073673;28;20479;-74
2022/08/30 03:17:16;;;;;;;1.30;1.30;;;27.40;46.00;;;;;;5073794;28;20426;-74
2022/08/30 03:19:44;;;;;;;1.33;1.30;;;27.40;46.20;;;;;;5073643;28;20472;-74
2022/08/30 03:22:12;;;;;;;1.67;1.40;;;27.40;46.10;;;;;;5069477;28;20508;-74
2022/08/30 03:24:42;;;;;;;1.30;1.20;;;27.40;46.20;;;;;;5073186;28;20469;-74
2022/08/30 03:27:10;;;;;;;1.63;1.53;;;27.40;46.20;;;;;;5073517;28;20416;-74
2022/08/30 03:29:38;;;;;;;1.40;1.30;;;27.40;46.10;;;;;;5073683;28;20446;-74
2022/08/30 03:32:06;;;;;;;1.30;1.20;;;27.40;46.20;;;;;;5073765;28;20446;-74
2022/08/30 03:34:34;;;;;;;1.40;1.30;;;27.40;46.10;;;;;;5073741;28;21002;-74
2022/08/30 03:37:02;;;;;;;2.10;1.13;;;27.30;46.10;;;;;;5073546;28;20445;-74
2022/08/30 03:39:30;;;;;;;2.03;1.30;;;27.30;46.10;;;;;;5067611;28;20544;-73
2022/08/30 03:41:59;;;;;;;1.10;1.10;;;27.30;46.00;;;;;;5073202;28;20413;-73
2022/08/30 03:44:29;;;;;;;1.27;1.27;;;27.30;46.10;;;;;;5072673;28;20490;-73
2022/08/30 03:46:56;;;;;;;1.30;1.20;;;27.30;46.10;;;;;;5072876;28;21011;-73
2022/08/30 03:49:24;;;;;;;1.20;1.20;;;27.30;46.10;;;;;;5073278;28;20520;-73
2022/08/30 03:51:52;;;;;;;1.30;1.20;;;27.30;46.10;;;;;;5074147;28;20419;-74
2022/08/30 03:54:20;;;;;;;2.30;1.60;;;27.20;46.10;;;;;;5071906;28;20548;-73
2022/08/30 03:56:51;;;;;;;1.60;1.50;;;27.20;46.10;;;;;;5073129;28;20450;-74
2022/08/30 03:59:20;;;;;;;1.50;1.40;;;27.20;46.10;;;;;;5073239;28;20523;-74
2022/08/30 04:01:48;;;;;;;1.23;1.13;;;27.20;46.00;;;;;;5073144;28;20422;-74
2022/08/30 04:04:16;;;;;;;1.23;1.20;;;27.20;46.00;;;;;;5072616;28;21055;-74
2022/08/30 04:06:48;;;;;;;1.17;1.17;;;27.20;46.00;;;;;;5073042;28;20456;-74
2022/08/30 04:09:16;;;;;;;1.40;1.30;;;27.20;46.00;;;;;;5072800;28;20458;-74
2022/08/30 04:11:44;;;;;;;1.40;1.30;;;27.20;46.10;;;;;;5073252;28;20511;-74
2022/08/30 04:14:12;;;;;;;1.23;1.20;;;27.20;46.00;;;;;;5065343;28;20490;-74
2022/08/30 04:16:42;;;;;;;1.43;1.20;;;27.20;46.10;;;;;;5073152;28;20982;-74
2022/08/30 04:19:10;;;;;;;1.80;1.70;;;27.20;46.10;;;;;;5072810;28;20450;-74
2022/08/30 04:21:38;;;;;;;1.03;1.03;;;27.20;46.10;;;;;;5072844;28;20420;-73
2022/08/30 04:24:10;;;;;;;1.20;1.20;;;27.20;46.00;;;;;;5079316;28;20530;-74
2022/08/30 04:26:38;;;;;;;1.73;1.23;;;27.20;46.10;;;;;;5074059;28;20450;-74
2022/08/30 04:29:06;;;;;;;1.20;1.20;;;27.20;46.00;;;;;;5072455;28;20569;-74
2022/08/30 04:31:33;;;;;;;1.10;1.10;;;27.20;46.00;;;;;;5072701;28;20503;-74
2022/08/30 04:34:03;;;;;;;1.30;1.30;;;27.10;46.00;;;;;;5072824;28;20433;-74
2022/08/30 04:36:30;;;;;;;1.10;1.10;;;27.20;46.10;;;;;;5072751;28;20511;-74
2022/08/30 04:38:58;;;;;;;1.40;1.30;;;27.10;46.00;;;;;;5072449;28;20503;-73
2022/08/30 04:41:26;;;;;;;1.57;1.47;;;27.10;46.10;;;;;;5072351;28;20459;-74
2022/08/30 04:43:54;;;;;;;1.17;1.17;;;27.10;46.00;;;;;;5072582;28;20565;-74
2022/08/30 04:46:22;;;;;;;1.50;1.40;;;27.10;45.90;;;;;;5072980;28;20440;-74
2022/08/30 04:48:50;;;;;;;1.40;1.30;;;27.10;46.00;;;;;;5070052;28;20516;-75
2022/08/30 04:51:19;;;;;;;2.97;1.10;;;27.20;46.00;;;;;;5072427;28;20529;-74
2022/08/30 04:53:47;;;;;;;1.47;1.20;;;27.10;46.00;;;;;;5072159;28;20450;-75
2022/08/30 04:56:18;;;;;;;1.27;1.20;;;27.10;45.90;;;;;;5071923;28;20432;-74
2022/08/30 04:58:47;;;;;;;1.97;1.10;;;27.10;45.90;;;;;;5071926;28;20987;-75
2022/08/30 05:01:16;;;;;;;1.00;1.00;;;27.10;45.90;;;;;;5072142;28;20521;-74
2022/08/30 05:03:46;;;;;;;2.40;1.07;;;27.10;45.90;;;;;;5071956;28;20790;-74
2022/08/30 05:06:14;;;;;;;1.20;1.10;;;27.10;46.00;;;;;;5069523;28;20444;-74
2022/08/30 05:08:44;;;;;;;1.27;1.27;;;27.10;45.90;;;;;;5072515;28;20484;-74
2022/08/30 05:11:14;;;;;;;1.53;1.00;;;27.10;45.90;;;;;;5072358;28;20430;-75
2022/08/30 05:13:42;;;;;;;1.10;1.10;;;27.10;45.90;;;;;;5071892;28;20474;-75
2022/08/30 05:16:12;;;;;;;1.47;1.43;;;27.10;45.80;;;;;;5072107;28;20533;-74
2022/08/30 05:18:40;;;;;;;1.60;1.50;;;27.10;45.80;;;;;;5072244;28;20446;-75
2022/08/30 05:21:09;;;;;;;1.37;1.10;;;27.10;45.90;;;;;;5072212;28;20520;-75
2022/08/30 05:23:37;;;;;;;1.10;1.10;;;27.10;45.80;;;;;;5064774;28;20537;-75
2022/08/30 05:26:07;;;;;;;1.00;1.00;;;27.10;45.70;;;;;;5072876;28;20473;-74
2022/08/30 05:28:35;;;;;;;0.90;0.90;;;27.10;45.80;;;;;;5071628;28;20527;-74
2022/08/30 05:31:03;;;;;;;1.20;1.10;;;27.10;45.80;;;;;;5072018;28;20944;-75
2022/08/30 05:33:40;;;;;;;2.60;1.30;;;27.10;45.90;;;;;;5071897;28;20449;-74
2022/08/30 05:36:09;;;;;;;2.13;1.40;;;27.20;45.80;;;;;;5071374;28;21030;-75
2022/08/30 05:38:37;;;;;;;1.20;1.20;;;27.10;45.70;;;;;;5068377;28;20560;-72
2022/08/30 05:41:07;;;;;;;1.23;1.23;;;27.10;45.70;;;;;;5070777;28;20424;-73
2022/08/30 05:43:38;;;;;;;1.47;1.00;;;27.10;45.80;;;;;;5072308;28;20469;-75
2022/08/30 05:46:06;;;;;;;1.63;1.10;;;27.20;45.80;;;;;;5075770;28;20539;-75
2022/08/30 05:48:35;;;;;;;1.40;1.40;;;27.20;45.70;;;;;;5071844;28;20531;-75
2022/08/30 05:51:04;;;;;;;1.30;1.20;;;27.20;45.60;;;;;;5071783;28;20446;-75
2022/08/30 05:53:32;;;;;;;1.50;1.40;;;27.20;45.60;;;;;;5071824;28;20441;-75
2022/08/30 05:56:01;;;;;;;1.30;1.20;;;27.20;45.70;;;;;;5071801;28;20545;-73
2022/08/30 05:58:30;;;;;;;1.10;1.10;;;27.20;45.60;;;;;;5068618;28;20455;-75
2022/08/30 06:00:58;;;;;;;1.13;1.13;;;27.20;45.60;;;;;;5071381;28;20419;-74
2022/08/30 06:03:26;;;;;;;1.13;1.07;;;27.20;45.60;;;;;;5071505;28;20423;-73
2022/08/30 06:05:53;;;;;;;1.13;1.13;;;27.20;45.60;;;;;;5071734;28;20452;-74
2022/08/30 06:08:21;;;;;;;0.90;0.90;;;27.20;45.60;;;;;;5075969;28;20473;-75
2022/08/30 06:10:49;;;;;;;1.30;1.20;;;27.20;45.70;;;;;;5076203;28;20437;-75
2022/08/30 06:13:17;;;;;;;1.10;1.10;;;27.20;45.60;;;;;;5075757;28;20476;-75
2022/08/30 06:15:46;;;;;;;1.20;1.20;;;27.20;45.60;;;;;;5070484;28;20444;-75
2022/08/30 06:18:14;;;;;;;1.00;1.00;;;27.20;45.40;;;;;;5075263;28;20899;-75
2022/08/30 06:20:42;;;;;;;1.00;1.00;;;27.20;45.60;;;;;;5075050;28;20499;-75
2022/08/30 06:23:10;;;;;;;1.20;1.10;;;27.20;45.50;;;;;;5074874;28;20408;-74
2022/08/30 06:25:38;;;;;;;1.63;1.10;;;27.20;45.60;;;;;;5074568;28;20469;-74
2022/08/30 06:28:08;;;;;;;2.20;1.30;;;27.20;45.60;;;;;;5074716;28;20404;-74
2022/08/30 06:30:36;;;;;;;1.20;1.10;;;27.20;45.50;;;;;;5075020;28;20416;-74
2022/08/30 06:33:05;;;;;;;1.20;1.20;;;27.20;45.50;;;;;;5073119;28;20429;-74
2022/08/30 06:35:33;;;;;;;1.40;1.30;;;27.20;45.60;;;;;;5074728;28;20431;-74
2022/08/30 06:38:18;;;;;;;1.03;1.03;;;27.20;45.50;;;;;;5074539;28;20430;-74
2022/08/30 06:40:47;;;;;;;1.17;1.17;;;27.10;45.50;;;;;;5074379;28;20421;-74
2022/08/30 06:43:15;;;;;;;2.10;1.20;;;27.20;45.60;;;;;;5074485;28;20507;-74
2022/08/30 06:45:43;;;;;;;1.20;1.10;;;27.20;45.50;;;;;;5074658;28;20452;-75
2022/08/30 06:48:12;;;;;;;1.20;1.20;;;27.20;45.60;;;;;;5075314;28;20511;-74
2022/08/30 06:50:40;;;;;;;1.50;1.20;;;27.10;45.50;;;;;;5063607;28;20452;-74
2022/08/30 06:53:09;;;;;;;1.30;1.20;;;27.10;45.50;;;;;;5074096;28;20520;-74
2022/08/30 06:55:37;;;;;;;1.23;1.23;;;27.10;45.60;;;;;;5073845;28;20788;-74
2022/08/30 06:58:05;;;;;;;1.40;1.40;;;27.20;45.60;;;;;;5073697;28;20921;-74
2022/08/30 07:00:33;;;;;;;1.20;1.20;;;27.10;45.50;;;;;;5074037;28;20511;-74
2022/08/30 07:03:03;;;;;;;1.20;1.10;;;27.10;45.50;;;;;;5074027;28;20420;-74
2022/08/30 07:05:33;;;;;;;1.27;1.17;;;27.10;45.50;;;;;;5072462;28;20448;-74
2022/08/30 07:08:01;;;;;;;1.20;1.20;;;27.20;45.60;;;;;;5072849;28;20528;-74
2022/08/30 07:10:29;;;;;;;1.30;1.00;;;27.20;45.50;;;;;;5073979;28;20812;-74
2022/08/30 07:12:57;;;;;;;1.33;1.07;;;27.20;45.50;;;;;;5074064;28;20424;-74
2022/08/30 07:15:25;;;;;;;1.33;1.23;;;27.20;45.40;;;;;;5073936;28;20424;-74
2022/08/30 07:20:41;;;;;;;1.27;1.17;;;27.20;45.30;;;;;;5073802;28;20445;-74
2022/08/30 07:23:09;;;;;;;1.00;1.00;;;27.30;46.00;;;;;;5071482;28;20515;-74
2022/08/30 07:25:37;;;;;;;4.90;1.10;;;27.30;45.30;;;;;;5072810;28;20561;-74
2022/08/30 07:28:05;;;;;;;0.90;0.90;;;27.30;45.30;;;;;;5073340;28;20427;-75
2022/08/30 07:30:33;;;;;;;1.20;1.10;;;27.30;45.20;;;;;;5073378;28;20444;-74
2022/08/30 07:33:01;;;;;;;1.07;1.07;;;27.30;45.20;;;;;;5073306;28;20499;-74
2022/08/30 07:35:30;;;;;;;1.70;1.30;;;27.40;45.10;;;;;;5074414;28;20452;-75
2022/08/30 07:37:59;;;;;;;1.00;1.00;;;27.40;45.10;;;;;;5074417;28;20480;-74
2022/08/30 07:40:27;;;;;;;1.00;1.00;;;27.40;45.00;;;;;;5072698;28;20449;-75
2022/08/30 07:42:55;;;;;;;1.43;1.33;;;27.40;45.10;;;;;;5071284;28;20420;-75
2022/08/30 07:45:23;;;;;;;0.90;0.90;;;27.40;45.10;;;;;;5073458;28;20473;-75
2022/08/30 07:47:51;;;;;;;1.00;1.00;;;27.50;45.10;;;;;;5074465;28;20503;-74
2022/08/30 07:50:21;;;;;;;1.10;1.10;;;27.50;45.00;;;;;;5074514;28;20504;-75
2022/08/30 07:52:49;;;;;;;0.97;0.97;;;27.50;44.90;;;;;;5073858;28;20851;-75
2022/08/30 07:55:18;;;;;;;0.90;0.90;;;27.60;44.80;;;;;;5073480;28;20535;-75
2022/08/30 07:57:46;;;;;;;0.97;0.90;;;27.60;44.70;;;;;;5067711;28;20486;-75
2022/08/30 08:00:15;;;;;;;1.33;1.17;;;27.70;44.60;;;;;;5069404;28;20401;-75
2022/08/30 08:02:44;;;;;;;1.20;1.10;;;27.80;44.60;;;;;;5073852;28;20516;-75
2022/08/30 08:05:13;;;;;;;1.20;1.10;;;27.80;44.40;;;;;;5073654;28;20459;-75
2022/08/30 08:07:45;;;;;;;1.20;1.10;;;27.80;44.20;;;;;;5073286;28;20499;-74
2022/08/30 08:10:13;;;;;;;0.90;0.90;;;27.90;44.30;;;;;;5073777;28;20528;-75
2022/08/30 08:12:42;;;;;;;1.53;1.07;;;27.90;44.20;;;;;;5073654;28;20420;-74
2022/08/30 08:15:12;;;;;;;2.03;1.20;;;28.10;44.20;;;;;;5068505;28;20817;-74
2022/08/30 08:17:40;;;;;;;1.00;1.00;;;28.10;44.10;;;;;;5072439;28;20420;-74
2022/08/30 08:20:08;;;;;;;1.00;1.00;;;28.20;43.90;;;;;;5072971;28;20412;-74
2022/08/30 08:22:36;;;;;;;2.20;0.90;;;28.20;43.60;;;;;;5072794;28;20441;-74
2022/08/30 08:25:07;;;;;;;1.20;1.10;;;28.30;43.60;;;;;;5073042;28;20473;-74
2022/08/30 08:27:35;;;;;;;0.90;0.90;;;28.30;43.60;;;;;;5072702;28;20509;-74
2022/08/30 08:30:06;;;;;;;1.00;0.97;;;28.40;43.60;;;;;;5072117;28;20517;-74
2022/08/30 08:32:34;;;;;;;0.90;0.90;;;28.50;43.40;;;;;;5066623;28;20454;-74
2022/08/30 08:35:02;;;;;;;0.90;0.90;;;28.60;43.30;;;;;;5073193;28;20467;-74
2022/08/30 08:37:30;;;;;;;1.10;1.10;;;28.70;43.20;;;;;;5073407;28;20504;-74
2022/08/30 08:39:58;;;;;;;1.10;1.10;;;28.80;43.00;;;;;;5072760;28;20481;-74
2022/08/30 08:42:31;;;;;;;0.87;0.87;;;29.00;42.90;;;;;;5073063;28;20453;-74
2022/08/30 08:45:01;;;;;;;1.23;1.13;;;29.10;43.20;;;;;;5072259;28;21067;-74
2022/08/30 08:47:37;;;;;;;1.07;1.07;;;29.20;42.30;;;;;;5072743;28;20439;-74
2022/08/30 08:50:08;;;;;;;3.47;1.00;;;29.30;42.10;;;;;;5071236;28;20478;-74
2022/08/30 08:55:34;;;;;;;1.10;0.97;;;29.50;41.90;;;;;;5072457;28;20461;-75
2022/08/30 08:58:02;;;;;;;1.00;0.90;;;29.60;41.70;;;;;;5072882;28;20483;-75
2022/08/30 09:00:30;;;;;;;1.10;1.03;;;29.60;41.80;;;;;;5072611;28;20421;-75
2022/08/30 09:03:01;;;;;;;2.00;1.00;;;29.60;41.70;;;;;;5073016;28;20416;-75
2022/08/30 09:05:35;;;;;;;1.03;1.00;;;29.70;41.50;;;;;;5073216;28;20544;-75
2022/08/30 09:08:04;;;;;;;0.80;0.80;;;29.80;41.50;;;;;;5069153;28;20452;-75
2022/08/30 09:10:36;;;;;;;1.20;0.90;;;29.80;41.40;;;;;;5071686;28;20452;-75
2022/08/30 09:13:16;;;;;;;1.00;1.00;;;29.90;41.20;;;;;;5080759;28;20507;-75
2022/08/30 09:15:46;;;;;;;1.10;0.97;;;29.90;41.20;;;;;;5052599;28;20441;-75
2022/08/30 09:18:37;;;;;;;1.00;1.00;;;29.80;41.10;;;;;;5052193;28;20428;-75
2022/08/30 09:21:08;;;;;;;2.50;1.30;;;29.80;41.20;;;;;;5053072;28;20515;-76
2022/08/30 09:23:36;;;;;;;1.00;1.00;;;29.70;41.20;;;;;;5051806;28;20504;-75
2022/08/30 09:26:06;;;;;;;1.00;1.00;;;29.70;41.30;;;;;;5055681;28;20469;-75
2022/08/30 09:28:35;;;;;;;1.00;0.80;;;29.70;41.30;;;;;;5070723;28;20450;-75
2022/08/30 09:31:07;;;;;;;1.17;1.17;;;29.60;41.30;;;;;;5072377;28;20478;-75
2022/08/30 09:33:40;;;;;;;1.10;1.00;;;29.60;41.40;;;;;;5072326;28;20424;-75
2022/08/30 09:36:16;;;;;;;1.83;0.90;;;29.60;41.40;;;;;;5072143;28;20444;-75
2022/08/30 09:38:44;;;;;;;1.37;0.83;;;29.60;41.40;;;;;;5071755;28;20525;-75
2022/08/30 09:41:29;;;;;;;0.90;0.90;;;29.70;41.40;;;;;;5071829;28;20533;-75
2022/08/30 09:44:06;;;;;;;1.00;1.00;;;29.80;41.50;;;;;;5060516;28;20404;-75
2022/08/30 09:46:34;;;;;;;1.87;1.00;;;29.80;41.30;;;;;;5074890;28;20403;-75
2022/08/30 09:49:03;;;;;;;0.90;0.90;;;30.00;41.30;;;;;;5075174;28;20448;-75
2022/08/30 09:51:43;;;;;;;1.17;0.90;;;30.00;41.20;;;;;;5075196;28;20441;-75
2022/08/30 09:54:16;;;;;;;1.00;1.00;;;30.10;40.90;;;;;;5075180;28;20441;-75
2022/08/30 09:56:51;;;;;;;1.20;1.10;;;30.10;40.90;;;;;;5074750;28;20809;-75
2022/08/30 09:59:31;;;;;;;0.87;0.87;;;30.20;40.80;;;;;;5066824;28;20460;-75
2022/08/30 10:02:01;;;;;;;0.90;0.90;;;30.30;40.60;;;;;;5071702;28;20449;-75
2022/08/30 10:04:34;;;;;;;0.90;0.90;;;30.40;40.40;;;;;;5086336;28;20449;-76
2022/08/30 10:07:05;;;;;;;2.00;0.90;;;30.60;40.30;;;;;;5083127;28;20465;-77
2022/08/30 10:09:35;;;;;;;0.97;0.97;;;30.60;40.00;;;;;;5093787;28;20438;-77
2022/08/30 10:12:05;;;;;;;1.33;0.93;;;30.70;40.20;;;;;;5094681;28;20444;-77
2022/08/30 10:14:51;;;;;;;0.77;0.77;;;30.70;39.90;;;;;;5085741;28;20478;-77
2022/08/30 10:17:27;;;;;;;1.30;1.03;;;30.50;40.20;;;;;;5071346;28;20404;-76
2022/08/30 10:20:11;;;;;;;1.70;1.10;;;30.50;40.20;;;;;;5086522;28;20436;-77
2022/08/30 10:22:40;;;;;;;1.23;1.10;;;30.50;40.50;;;;;;5086281;28;20433;-77
2022/08/30 10:25:10;;;;;;;6.00;1.47;;;30.30;40.70;;;;;;5091817;28;20962;-76
2022/08/30 10:27:47;;;;;;;3.00;1.30;;;30.30;40.90;;;;;;5077373;28;20472;-75
2022/08/30 10:30:15;;;;;;;6.17;1.87;;;30.30;41.00;;;;;;5069115;28;20932;-76
2022/08/30 10:32:46;;;;;;;4.40;1.63;;;30.20;41.10;;;;;;5065249;28;20453;-76
2022/08/30 10:35:18;;;;;;;6.47;2.10;;;30.20;41.40;;;;;;5067529;28;20497;-76
2022/08/30 10:37:48;;;;;;;3.00;1.73;;;30.20;41.80;;;;;;5053696;28;20453;-76
2022/08/30 10:43:08;;;;;;;6.87;2.00;;;30.20;42.10;;;;;;5067240;28;20810;-76
2022/08/30 10:45:37;;;;;;;5.73;1.57;;;30.20;42.30;;;;;;5076215;28;20549;-76
2022/08/30 10:48:07;;;;;;;5.17;2.00;;;30.20;42.40;;;;;;5075092;28;20481;-76
2022/08/30 10:50:41;;;;;;;14.53;2.10;;;30.30;42.00;;;;;;5072393;28;20484;-76
2022/08/30 10:53:10;;;;;;;5.40;1.63;;;30.40;42.20;;;;;;5073500;28;20429;-75
2022/08/30 10:55:44;;;;;;;4.67;1.70;;;30.50;42.00;;;;;;5060214;28;20536;-75
2022/08/30 10:58:17;;;;;;;4.27;1.57;;;30.50;42.00;;;;;;5056624;28;20402;-76
2022/08/30 11:00:52;;;;;;;6.53;1.93;;;30.40;42.70;;;;;;5064616;28;20985;-75
2022/08/30 11:03:55;;;;;;;9.90;1.67;;;30.40;42.20;;;;;;5064406;28;20465;-75
2022/08/30 11:06:27;;;;;;;3.27;1.40;;;30.30;42.30;;;;;;5056546;28;20465;-75
2022/08/30 11:09:18;;;;;;;8.73;1.90;;;30.20;42.30;;;;;;5064482;28;20461;-75
2022/08/30 11:11:56;;;;;;;5.27;1.67;;;30.40;42.30;;;;;;5056774;28;20434;-76
2022/08/30 11:14:23;;;;;;;9.00;2.07;;;30.30;42.20;;;;;;5062249;28;20446;-76
2022/08/30 11:16:53;;;;;;;6.33;2.40;;;30.30;42.30;;;;;;5060637;28;20435;-76
2022/08/30 11:19:23;;;;;;;5.03;1.60;;;30.50;42.50;;;;;;5062084;28;20438;-76
2022/08/30 11:21:59;;;;;;;4.23;1.70;;;30.70;42.10;;;;;;5064675;28;20441;-76
2022/08/30 11:24:27;;;;;;;2.47;1.40;;;30.80;41.90;;;;;;5063096;28;20556;-75
2022/08/30 11:27:00;;;;;;;3.43;1.40;;;31.00;41.60;;;;;;5063905;28;20806;-76
2022/08/30 11:29:34;;;;;;;3.30;1.70;;;30.90;41.60;;;;;;5059767;28;20452;-76
2022/08/30 11:32:22;;;;;;;3.20;1.57;;;30.80;41.90;;;;;;5062636;28;20550;-76
2022/08/30 11:34:58;;;;;;;5.00;1.37;;;30.70;42.00;;;;;;5066708;28;20523;-76
2022/08/30 11:37:37;;;;;;;6.87;1.40;;;30.60;42.20;;;;;;5063739;28;20442;-75
2022/08/30 11:40:08;;;;;;;5.13;1.50;;;30.50;42.40;;;;;;5061466;28;20561;-76
2022/08/30 11:42:46;;;;;;;1.67;1.20;;;30.50;42.60;;;;;;5064389;28;20495;-76
2022/08/30 11:45:58;;;;;;;2.23;1.40;;;30.50;42.70;;;;;;5064807;28;20443;-76
2022/08/30 11:48:44;;;;;;;5.97;1.40;;;30.40;42.80;;;;;;5064311;28;20480;-75
2022/08/30 11:51:45;;;;;;;2.93;1.37;;;30.60;42.60;;;;;;5060467;28;20454;-76
2022/08/30 11:54:37;;;;;;;2.10;1.40;;;30.80;42.50;;;;;;5063897;28;20438;-75
2022/08/30 11:57:10;;;;;;;3.00;1.30;;;31.00;42.00;;;;;;5063827;28;20533;-76
2022/08/30 11:59:45;;;;;;;1.63;1.53;;;31.20;41.60;;;;;;5062436;28;20464;-76
2022/08/30 12:02:47;;;;;;;4.03;1.20;;;31.40;41.40;;;;;;5064399;28;20417;-76
2022/08/30 12:05:50;;;;;;;2.83;1.23;;;31.50;41.20;;;;;;5062535;28;20462;-76
2022/08/30 12:08:44;;;;;;;1.20;1.10;;;31.60;41.00;;;;;;5051768;28;20530;-75
2022/08/30 12:12:02;;;;;;;1.03;0.90;;;31.70;40.80;;;;;;5051780;28;20446;-75
2022/08/30 12:14:37;;;;;;;1.70;1.20;;;31.70;40.80;;;;;;5063330;28;20587;-76
2022/08/30 12:19:59;;;;;;;1.93;1.20;;;31.60;40.70;;;;;;5063549;28;20517;-76
2022/08/30 12:22:29;;;;;;;1.10;1.10;;;31.40;41.00;;;;;;5062063;28;20533;-75
2022/08/30 12:24:57;;;;;;;1.63;1.03;;;31.40;41.20;;;;;;5062894;28;20500;-76
2022/08/30 12:27:27;;;;;;;2.87;1.17;;;31.50;41.10;;;;;;5057391;28;20438;-75
2022/08/30 12:30:02;;;;;;;1.10;0.90;;;31.60;40.90;;;;;;5062872;28;20469;-76
2022/08/30 12:32:30;;;;;;;1.10;1.10;;;31.70;40.80;;;;;;5065782;28;20441;-75
2022/08/30 12:34:59;;;;;;;2.07;1.10;;;31.80;40.50;;;;;;5062800;28;20454;-75
2022/08/30 12:37:29;;;;;;;1.97;1.10;;;31.90;40.40;;;;;;5055799;28;20438;-76
2022/08/30 12:40:01;;;;;;;1.90;1.20;;;32.00;40.40;;;;;;5058916;28;20434;-76
2022/08/30 12:42:30;;;;;;;6.10;1.10;;;32.00;40.20;;;;;;5054579;28;20437;-76
2022/08/30 12:45:05;;;;;;;3.57;1.30;;;31.90;40.20;;;;;;5062033;28;20568;-76
2022/08/30 12:47:37;;;;;;;1.83;0.97;;;31.70;40.20;;;;;;5065658;28;20557;-75
2022/08/30 12:50:06;;;;;;;1.23;1.00;;;31.60;40.70;;;;;;5072218;28;20470;-74
2022/08/30 12:52:40;;;;;;;1.40;0.83;;;31.70;40.30;;;;;;5067803;28;20446;-75
2022/08/30 12:55:12;;;;;;;1.47;1.10;;;31.70;40.20;;;;;;5053205;28;20471;-74
2022/08/30 12:57:56;;;;;;;4.40;0.90;;;31.70;40.40;;;;;;5071629;28;20441;-75
2022/08/30 13:00:30;;;;;;;3.90;1.20;;;31.80;40.90;;;;;;5072230;28;20437;-75
2022/08/30 13:03:00;;;;;;;1.00;0.90;;;31.80;40.30;;;;;;5071274;28;20542;-75
2022/08/30 13:05:34;;;;;;;2.83;1.00;;;31.80;40.20;;;;;;5072068;28;20461;-75
2022/08/30 13:08:16;;;;;;;1.20;0.87;;;32.00;40.00;;;;;;5071527;28;20416;-74
2022/08/30 13:10:54;;;;;;;1.00;1.00;;;32.00;39.90;;;;;;5071196;28;20819;-74
2022/08/30 13:13:37;;;;;;;0.90;0.90;;;32.10;39.90;;;;;;5071366;28;20448;-75
2022/08/30 13:16:23;;;;;;;2.03;0.90;;;32.10;39.60;;;;;;5072216;28;20468;-75
2022/08/30 13:18:53;;;;;;;1.00;0.80;;;31.90;39.70;;;;;;5075530;28;20437;-75